aviador You're here:

EPRA Decoded Metar

in _UNIDENTIFIED
Report Time2017-10-23 06:00:00
UTC Time2017-10-23 06:15:10
Flight Rules lifr LIFR
Wind060° at 04 kt
W.Decomp.*RWY 07: 3.9 kt HW 1 kt LCW
W.Rank060° ranks 35
Current wind is below 060° avg. (5.8)
Visibility0300 m
Phenomena:Fog
Clouds:Overcast 002 Hf
Ceiling200 ft
Temp08°C (ISA -6)
Dew Point08°C (100% RH)
AAT6.1°C
QNH1011 hPa
Density Alt98 ft
Elevation584 ft
Report Wrong Elevation
Raw Report
METAR EPRA 230600Z 06004KT 0300 FG OVC002 08/08 Q1011=

Extra information for EPRA:More info

Metar Taf Metar & Taf Last 4 Metars F.Rules Stats Wind Profile Meteogram Temp Stats Metar ALERT Operation Metar Decoded Social comments